sensor_id;sensor_type;location;lat;lon;timestamp;pressure;altitude;pressure_sealevel;temperature;humidity
8699;BME280;4386;51.236;6.742;2023-04-15T00:01:16;96124.47;;;19.63;60.73
8699;BME280;4386;51.236;6.742;2023-04-15T00:02:42;96117.47;;;19.62;60.95
8699;BME280;4386;51.236;6.742;2023-04-15T00:04:05;96124.47;;;19.63;60.98
8699;BME280;4386;51.236;6.742;2023-04-15T00:05:29;96117.47;;;19.62;61.01
8699;BME280;4386;51.236;6.742;2023-04-15T00:06:52;96119.84;;;19.63;60.60
8699;BME280;4386;51.236;6.742;2023-04-15T00:08:15;96120.66;;;19.64;60.88
8699;BME280;4386;51.236;6.742;2023-04-15T00:09:38;96113.72;;;19.63;60.80
8699;BME280;4386;51.236;6.742;2023-04-15T00:11:01;96126.03;;;19.64;60.66
8699;BME280;4386;51.236;6.742;2023-04-15T00:12:27;96126.03;;;19.64;60.83
8699;BME280;4386;51.236;6.742;2023-04-15T00:13:50;96126.84;;;19.64;60.69
8699;BME280;4386;51.236;6.742;2023-04-15T00:15:13;96123.34;;;19.64;60.88
8699;BME280;4386;51.236;6.742;2023-04-15T00:16:36;96129.53;;;19.64;60.34
8699;BME280;4386;51.236;6.742;2023-04-15T00:18:01;96122.53;;;19.63;60.60
8699;BME280;4386;51.236;6.742;2023-04-15T00:19:25;96117.19;;;19.63;60.72
8699;BME280;4386;51.236;6.742;2023-04-15T00:20:48;96114.50;;;19.63;60.68
8699;BME280;4386;51.236;6.742;2023-04-15T00:22:11;96121.47;;;19.64;60.47
8699;BME280;4386;51.236;6.742;2023-04-15T00:23:34;96120.66;;;19.64;60.84
8699;BME280;4386;51.236;6.742;2023-04-15T00:24:58;96119.09;;;19.63;60.91
8699;BME280;4386;51.236;6.742;2023-04-15T00:26:21;96115.28;;;19.64;60.70
8699;BME280;4386;51.236;6.742;2023-04-15T00:27:45;96117.19;;;19.63;60.40
8699;BME280;4386;51.236;6.742;2023-04-15T00:29:09;96115.00;;;19.65;60.34
8699;BME280;4386;51.236;6.742;2023-04-15T00:30:32;96113.13;;;19.66;60.47
8699;BME280;4386;51.236;6.742;2023-04-15T00:31:50;96117.69;;;19.65;60.74
8699;BME280;4386;51.236;6.742;2023-04-15T00:32:53;96110.94;;;19.68;60.26
8699;BME280;4386;51.236;6.742;2023-04-15T00:33:57;96110.94;;;19.68;60.41
8699;BME280;4386;51.236;6.742;2023-04-15T00:35:01;96107.97;;;19.69;60.33
8699;BME280;4386;51.236;6.742;2023-04-15T00:36:05;96107.66;;;19.71;60.03
8699;BME280;4386;51.236;6.742;2023-04-15T00:37:09;96111.97;;;19.72;60.16
8699;BME280;4386;51.236;6.742;2023-04-15T00:38:12;96108.19;;;19.73;60.38
8699;BME280;4386;51.236;6.742;2023-04-15T00:39:15;96111.38;;;19.75;60.37
8699;BME280;4386;51.236;6.742;2023-04-15T00:40:20;96104.13;;;19.75;60.08
8699;BME280;4386;51.236;6.742;2023-04-15T00:41:25;96110.31;;;19.76;60.00
8699;BME280;4386;51.236;6.742;2023-04-15T00:42:28;96103.81;;;19.77;60.22
8699;BME280;4386;51.236;6.742;2023-04-15T00:43:31;96103.81;;;19.77;59.83
8699;BME280;4386;51.236;6.742;2023-04-15T00:44:35;96098.44;;;19.77;59.87
8699;BME280;4386;51.236;6.742;2023-04-15T00:45:37;96098.44;;;19.77;59.97
8699;BME280;4386;51.236;6.742;2023-04-15T00:46:42;96092.78;;;19.79;60.00
8699;BME280;4386;51.236;6.742;2023-04-15T00:47:46;96093.59;;;19.79;59.91
8699;BME280;4386;51.236;6.742;2023-04-15T00:48:50;96099.78;;;19.80;60.24
8699;BME280;4386;51.236;6.742;2023-04-15T00:49:54;96097.84;;;19.80;60.14
8699;BME280;4386;51.236;6.742;2023-04-15T00:50:57;96102.16;;;19.81;60.13
8699;BME280;4386;51.236;6.742;2023-04-15T00:52:00;96095.16;;;19.80;60.09
8699;BME280;4386;51.236;6.742;2023-04-15T00:53:03;96096.78;;;19.81;59.78
8699;BME280;4386;51.236;6.742;2023-04-15T00:54:06;96089.53;;;19.82;59.67
8699;BME280;4386;51.236;6.742;2023-04-15T00:55:10;96094.09;;;19.81;59.67
8699;BME280;4386;51.236;6.742;2023-04-15T00:56:12;96097.28;;;19.83;60.02
8699;BME280;4386;51.236;6.742;2023-04-15T00:57:16;96094.88;;;19.82;60.07
8699;BME280;4386;51.236;6.742;2023-04-15T00:58:18;96095.69;;;19.82;59.89
8699;BME280;4386;51.236;6.742;2023-04-15T00:59:22;96097.28;;;19.83;59.69
8699;BME280;4386;51.236;6.742;2023-04-15T01:00:25;96093.00;;;19.82;59.67
8699;BME280;4386;51.236;6.742;2023-04-15T01:01:29;96097.28;;;19.83;59.58
8699;BME280;4386;51.236;6.742;2023-04-15T01:02:52;96091.41;;;19.81;59.53
8699;BME280;4386;51.236;6.742;2023-04-15T01:04:16;96092.47;;;19.80;59.75
8699;BME280;4386;51.236;6.742;2023-04-15T01:05:41;96097.09;;;19.80;59.43
8699;BME280;4386;51.236;6.742;2023-04-15T01:07:04;96093.88;;;19.77;59.98
8699;BME280;4386;51.236;6.742;2023-04-15T01:08:28;96086.13;;;19.76;59.84
8699;BME280;4386;51.236;6.742;2023-04-15T01:09:50;96080.22;;;19.74;59.74
8699;BME280;4386;51.236;6.742;2023-04-15T01:11:14;96077.53;;;19.74;59.78
8699;BME280;4386;51.236;6.742;2023-04-15T01:12:37;96068.69;;;19.73;60.00
8699;BME280;4386;51.236;6.742;2023-04-15T01:14:01;96067.59;;;19.74;59.65
8699;BME280;4386;51.236;6.742;2023-04-15T01:15:24;96074.03;;;19.73;59.46
8699;BME280;4386;51.236;6.742;2023-04-15T01:16:48;96075.16;;;19.72;59.82
8699;BME280;4386;51.236;6.742;2023-04-15T01:18:11;96072.75;;;19.71;59.46
8699;BME280;4386;51.236;6.742;2023-04-15T01:19:35;96062.81;;;19.71;59.21
8699;BME280;4386;51.236;6.742;2023-04-15T01:21:00;96073.56;;;19.71;59.49
8699;BME280;4386;51.236;6.742;2023-04-15T01:22:24;96073.28;;;19.73;59.40
8699;BME280;4386;51.236;6.742;2023-04-15T01:23:49;96078.13;;;19.71;59.18
8699;BME280;4386;51.236;6.742;2023-04-15T01:25:17;96077.03;;;19.72;59.46
8699;BME280;4386;51.236;6.742;2023-04-15T01:26:41;96075.44;;;19.71;59.27
8699;BME280;4386;51.236;6.742;2023-04-15T01:28:05;96072.75;;;19.71;59.21
8699;BME280;4386;51.236;6.742;2023-04-15T01:29:12;96068.97;;;19.72;59.48
8699;BME280;4386;51.236;6.742;2023-04-15T01:30:21;96081.34;;;19.73;59.40
8699;BME280;4386;51.236;6.742;2023-04-15T01:31:23;96076.47;;;19.75;59.07
8699;BME280;4386;51.236;6.742;2023-04-15T01:32:27;96074.56;;;19.75;59.22
8699;BME280;4386;51.236;6.742;2023-04-15T01:33:29;96076.94;;;19.77;58.83
8699;BME280;4386;51.236;6.742;2023-04-15T01:34:33;96068.88;;;19.77;59.05
8699;BME280;4386;51.236;6.742;2023-04-15T01:35:36;96085.22;;;19.81;59.34
8699;BME280;4386;51.236;6.742;2023-04-15T01:36:40;96080.66;;;19.81;58.87
8699;BME280;4386;51.236;6.742;2023-04-15T01:37:43;96084.94;;;19.82;58.92
8699;BME280;4386;51.236;6.742;2023-04-15T01:38:47;96074.19;;;19.82;58.61
8699;BME280;4386;51.236;6.742;2023-04-15T01:39:49;96081.16;;;19.83;58.81
8699;BME280;4386;51.236;6.742;2023-04-15T01:40:52;96082.75;;;19.84;58.78
8699;BME280;4386;51.236;6.742;2023-04-15T01:41:56;96081.16;;;19.83;58.63
8699;BME280;4386;51.236;6.742;2023-04-15T01:42:59;96074.69;;;19.84;58.73
8699;BME280;4386;51.236;6.742;2023-04-15T01:44:02;96079.00;;;19.85;58.55
8699;BME280;4386;51.236;6.742;2023-04-15T01:45:06;96077.09;;;19.86;58.78
8699;BME280;4386;51.236;6.742;2023-04-15T01:46:09;96084.38;;;19.85;58.75
8699;BME280;4386;51.236;6.742;2023-04-15T01:47:13;96080.56;;;19.86;58.50
8699;BME280;4386;51.236;6.742;2023-04-15T01:48:16;96089.72;;;19.85;58.61
8699;BME280;4386;51.236;6.742;2023-04-15T01:49:19;96091.31;;;19.86;58.37
8699;BME280;4386;51.236;6.742;2023-04-15T01:50:21;96086.75;;;19.87;58.69
8699;BME280;4386;51.236;6.742;2023-04-15T01:51:26;96090.22;;;19.87;58.43
8699;BME280;4386;51.236;6.742;2023-04-15T01:52:29;96090.22;;;19.87;58.85
8699;BME280;4386;51.236;6.742;2023-04-15T01:53:33;96091.03;;;19.88;58.64
8699;BME280;4386;51.236;6.742;2023-04-15T01:54:35;96087.53;;;19.87;58.51
8699;BME280;4386;51.236;6.742;2023-04-15T01:55:38;96086.47;;;19.88;58.73
8699;BME280;4386;51.236;6.742;2023-04-15T01:56:42;96082.16;;;19.87;58.30
8699;BME280;4386;51.236;6.742;2023-04-15T01:57:46;96073.03;;;19.88;58.65
8699;BME280;4386;51.236;6.742;2023-04-15T01:58:49;96084.84;;;19.87;58.28
8699;BME280;4386;51.236;6.742;2023-04-15T01:59:52;96091.03;;;19.88;58.05
8699;BME280;4386;51.236;6.742;2023-04-15T02:00:55;96086.47;;;19.88;58.05
8699;BME280;4386;51.236;6.742;2023-04-15T02:01:59;96089.16;;;19.88;58.21
8699;BME280;4386;51.236;6.742;2023-04-15T02:03:23;96079.78;;;19.86;58.35
8699;BME280;4386;51.236;6.742;2023-04-15T02:04:47;96073.63;;;19.85;58.21
8699;BME280;4386;51.236;6.742;2023-04-15T02:06:09;96079.56;;;19.82;58.41
8699;BME280;4386;51.236;6.742;2023-04-15T02:07:32;96077.16;;;19.81;58.15
8699;BME280;4386;51.236;6.742;2023-04-15T02:08:56;96083.66;;;19.80;58.00
8699;BME280;4386;51.236;6.742;2023-04-15T02:10:20;96075.59;;;19.80;58.13
8699;BME280;4386;51.236;6.742;2023-04-15T02:11:43;96086.63;;;19.78;58.12
8699;BME280;4386;51.236;6.742;2023-04-15T02:13:07;96092.00;;;19.78;58.12
8699;BME280;4386;51.236;6.742;2023-04-15T02:14:30;96100.84;;;19.79;58.61
8699;BME280;4386;51.236;6.742;2023-04-15T02:15:54;96093.88;;;19.77;58.39
8699;BME280;4386;51.236;6.742;2023-04-15T02:17:18;96106.50;;;19.77;57.93
8699;BME280;4386;51.236;6.742;2023-04-15T02:18:40;96101.13;;;19.77;58.50
8699;BME280;4386;51.236;6.742;2023-04-15T02:20:05;96091.50;;;19.76;58.36
8699;BME280;4386;51.236;6.742;2023-04-15T02:21:27;96086.13;;;19.76;58.47
8699;BME280;4386;51.236;6.742;2023-04-15T02:22:51;96078.06;;;19.76;58.22
8699;BME280;4386;51.236;6.742;2023-04-15T02:24:13;96080.75;;;19.76;58.60
8699;BME280;4386;51.236;6.742;2023-04-15T02:25:37;96079.13;;;19.75;58.34
8699;BME280;4386;51.236;6.742;2023-04-15T02:27:00;96086.13;;;19.76;58.13
8699;BME280;4386;51.236;6.742;2023-04-15T02:28:25;96086.13;;;19.76;58.26
8699;BME280;4386;51.236;6.742;2023-04-15T02:29:49;96080.75;;;19.76;58.27
8699;BME280;4386;51.236;6.742;2023-04-15T02:31:12;96087.19;;;19.75;57.87
8699;BME280;4386;51.236;6.742;2023-04-15T02:32:35;96089.88;;;19.75;58.02
8699;BME280;4386;51.236;6.742;2023-04-15T02:33:58;96093.38;;;19.75;57.98
8699;BME280;4386;51.236;6.742;2023-04-15T02:35:23;96106.00;;;19.75;58.46
8699;BME280;4386;51.236;6.742;2023-04-15T02:36:47;96100.63;;;19.75;58.06
8699;BME280;4386;51.236;6.742;2023-04-15T02:38:10;96089.09;;;19.74;58.28
8699;BME280;4386;51.236;6.742;2023-04-15T02:39:35;96089.88;;;19.75;58.04
8699;BME280;4386;51.236;6.742;2023-04-15T02:40:58;96084.50;;;19.75;58.06
8699;BME280;4386;51.236;6.742;2023-04-15T02:42:21;96081.81;;;19.75;58.09
8699;BME280;4386;51.236;6.742;2023-04-15T02:43:45;96086.13;;;19.76;58.21
8699;BME280;4386;51.236;6.742;2023-04-15T02:45:09;96089.88;;;19.75;57.99
8699;BME280;4386;51.236;6.742;2023-04-15T02:46:33;96100.63;;;19.75;58.22
8699;BME280;4386;51.236;6.742;2023-04-15T02:47:57;96091.50;;;19.76;58.40
8699;BME280;4386;51.236;6.742;2023-04-15T02:49:19;96097.94;;;19.75;58.53
8699;BME280;4386;51.236;6.742;2023-04-15T02:50:44;96111.38;;;19.75;58.57
8699;BME280;4386;51.236;6.742;2023-04-15T02:52:07;96114.06;;;19.75;58.28
8699;BME280;4386;51.236;6.742;2023-04-15T02:53:30;96106.81;;;19.75;58.47
8699;BME280;4386;51.236;6.742;2023-04-15T02:54:54;96114.06;;;19.75;58.47
8699;BME280;4386;51.236;6.742;2023-04-15T02:56:21;96111.38;;;19.75;58.10
8699;BME280;4386;51.236;6.742;2023-04-15T02:57:45;96115.69;;;19.76;58.45
8699;BME280;4386;51.236;6.742;2023-04-15T02:59:10;96113.75;;;19.76;58.07
8699;BME280;4386;51.236;6.742;2023-04-15T03:00:33;96118.34;;;19.76;58.38
8699;BME280;4386;51.236;6.742;2023-04-15T03:01:57;96112.19;;;19.75;58.12
8699;BME280;4386;51.236;6.742;2023-04-15T03:03:22;96103.81;;;19.77;58.21
8699;BME280;4386;51.236;6.742;2023-04-15T03:04:45;96101.44;;;19.75;58.22
8699;BME280;4386;51.236;6.742;2023-04-15T03:06:08;96113.75;;;19.76;58.34
8699;BME280;4386;51.236;6.742;2023-04-15T03:07:32;96110.31;;;19.76;58.38
8699;BME280;4386;51.236;6.742;2023-04-15T03:08:55;96105.69;;;19.76;58.51
8699;BME280;4386;51.236;6.742;2023-04-15T03:10:18;96092.78;;;19.79;58.15
8699;BME280;4386;51.236;6.742;2023-04-15T03:11:42;96091.19;;;19.77;58.66
8699;BME280;4386;51.236;6.742;2023-04-15T03:13:04;96094.19;;;19.76;58.34
8699;BME280;4386;51.236;6.742;2023-04-15T03:14:29;96090.09;;;19.79;58.45
8699;BME280;4386;51.236;6.742;2023-04-15T03:15:51;96083.13;;;19.77;58.64
8699;BME280;4386;51.236;6.742;2023-04-15T03:17:15;96081.53;;;19.76;58.20
8699;BME280;4386;51.236;6.742;2023-04-15T03:18:37;96081.53;;;19.76;58.46
8699;BME280;4386;51.236;6.742;2023-04-15T03:20:01;96094.94;;;19.76;58.37
8699;BME280;4386;51.236;6.742;2023-04-15T03:21:26;96088.81;;;19.76;58.39
8699;BME280;4386;51.236;6.742;2023-04-15T03:22:48;96082.31;;;19.77;58.59
8699;BME280;4386;51.236;6.742;2023-04-15T03:24:11;96077.75;;;19.77;58.12
8699;BME280;4386;51.236;6.742;2023-04-15T03:25:35;96073.97;;;19.79;58.38
8699;BME280;4386;51.236;6.742;2023-04-15T03:26:58;96075.88;;;19.78;58.42
8699;BME280;4386;51.236;6.742;2023-04-15T03:28:22;96085.53;;;19.79;58.17
8699;BME280;4386;51.236;6.742;2023-04-15T03:29:45;96080.44;;;19.77;58.02
8699;BME280;4386;51.236;6.742;2023-04-15T03:31:09;96081.25;;;19.78;58.17
8699;BME280;4386;51.236;6.742;2023-04-15T03:32:31;96089.31;;;19.78;58.44
8699;BME280;4386;51.236;6.742;2023-04-15T03:33:55;96083.13;;;19.77;57.92
8699;BME280;4386;51.236;6.742;2023-04-15T03:35:17;96090.38;;;19.77;58.50
8699;BME280;4386;51.236;6.742;2023-04-15T03:36:40;96083.94;;;19.78;58.60
8699;BME280;4386;51.236;6.742;2023-04-15T03:38:03;96080.16;;;19.79;58.28
8699;BME280;4386;51.236;6.742;2023-04-15T03:39:27;96080.16;;;19.79;57.86
8699;BME280;4386;51.236;6.742;2023-04-15T03:40:50;96080.16;;;19.79;57.99
8699;BME280;4386;51.236;6.742;2023-04-15T03:42:13;96082.03;;;19.79;58.14
8699;BME280;4386;51.236;6.742;2023-04-15T03:43:37;96079.34;;;19.79;57.96
8699;BME280;4386;51.236;6.742;2023-04-15T03:45:02;96079.06;;;19.80;57.96
8699;BME280;4386;51.236;6.742;2023-04-15T03:46:25;96073.19;;;19.78;57.82
8699;BME280;4386;51.236;6.742;2023-04-15T03:47:47;96073.97;;;19.79;57.90
8699;BME280;4386;51.236;6.742;2023-04-15T03:49:13;96073.97;;;19.79;58.03
8699;BME280;4386;51.236;6.742;2023-04-15T03:50:35;96069.41;;;19.79;57.97
8699;BME280;4386;51.236;6.742;2023-04-15T03:51:59;96077.47;;;19.79;57.87
8699;BME280;4386;51.236;6.742;2023-04-15T03:53:21;96071.78;;;19.81;57.93
8699;BME280;4386;51.236;6.742;2023-04-15T03:54:45;96075.59;;;19.80;57.64
8699;BME280;4386;51.236;6.742;2023-04-15T03:55:49;96071.50;;;19.82;58.01
8699;BME280;4386;51.236;6.742;2023-04-15T03:56:56;96072.31;;;19.83;57.60
8699;BME280;4386;51.236;6.742;2023-04-15T03:58:06;96076.59;;;19.84;58.02
8699;BME280;4386;51.236;6.742;2023-04-15T03:59:20;96069.31;;;19.84;58.04
8699;BME280;4386;51.236;6.742;2023-04-15T04:00:26;96068.25;;;19.85;57.58
8699;BME280;4386;51.236;6.742;2023-04-15T04:01:31;96072.50;;;19.86;57.76
8699;BME280;4386;51.236;6.742;2023-04-15T04:02:37;96070.34;;;19.88;57.68
8699;BME280;4386;51.236;6.742;2023-04-15T04:03:41;96067.66;;;19.88;57.75
8699;BME280;4386;51.236;6.742;2023-04-15T04:04:43;96069.25;;;19.89;57.57
8699;BME280;4386;51.236;6.742;2023-04-15T04:05:46;96068.94;;;19.91;57.72
8699;BME280;4386;51.236;6.742;2023-04-15T04:06:50;96064.38;;;19.91;57.19
8699;BME280;4386;51.236;6.742;2023-04-15T04:07:54;96061.69;;;19.91;57.33
8699;BME280;4386;51.236;6.742;2023-04-15T04:09:06;96060.09;;;19.90;57.21
8699;BME280;4386;51.236;6.742;2023-04-15T04:10:10;96067.06;;;19.91;57.59
8699;BME280;4386;51.236;6.742;2023-04-15T04:11:13;96056.00;;;19.93;57.30
8699;BME280;4386;51.236;6.742;2023-04-15T04:12:16;96065.66;;;19.94;57.55
8699;BME280;4386;51.236;6.742;2023-04-15T04:13:19;96064.88;;;19.93;57.20
8699;BME280;4386;51.236;6.742;2023-04-15T04:14:22;96060.59;;;19.92;57.04
8699;BME280;4386;51.236;6.742;2023-04-15T04:15:31;96063.28;;;19.92;57.20
8699;BME280;4386;51.236;6.742;2023-04-15T04:16:37;96064.88;;;19.93;57.11
8699;BME280;4386;51.236;6.742;2023-04-15T04:17:40;96073.44;;;19.95;57.39
8699;BME280;4386;51.236;6.742;2023-04-15T04:18:43;96073.44;;;19.95;57.24
8699;BME280;4386;51.236;6.742;2023-04-15T04:19:47;96072.66;;;19.95;57.31
8699;BME280;4386;51.236;6.742;2023-04-15T04:20:49;96076.94;;;19.96;57.18
8699;BME280;4386;51.236;6.742;2023-04-15T04:21:53;96074.25;;;19.96;57.28
8699;BME280;4386;51.236;6.742;2023-04-15T04:22:55;96072.34;;;19.96;57.12
8699;BME280;4386;51.236;6.742;2023-04-15T04:23:59;96069.66;;;19.96;56.93
8699;BME280;4386;51.236;6.742;2023-04-15T04:25:01;96076.63;;;19.97;56.88
8699;BME280;4386;51.236;6.742;2023-04-15T04:26:05;96069.66;;;19.96;57.24
8699;BME280;4386;51.236;6.742;2023-04-15T04:27:07;96073.94;;;19.97;56.91
8699;BME280;4386;51.236;6.742;2023-04-15T04:28:11;96071.25;;;19.97;56.93
8699;BME280;4386;51.236;6.742;2023-04-15T04:29:13;96070.19;;;19.98;56.90
8699;BME280;4386;51.236;6.742;2023-04-15T04:30:17;96068.56;;;19.97;56.65
8699;BME280;4386;51.236;6.742;2023-04-15T04:31:21;96078.25;;;19.98;56.64
8699;BME280;4386;51.236;6.742;2023-04-15T04:32:24;96071.25;;;19.97;56.59
8699;BME280;4386;51.236;6.742;2023-04-15T04:33:27;96073.94;;;19.97;56.59
8699;BME280;4386;51.236;6.742;2023-04-15T04:34:30;96072.88;;;19.98;56.57
8699;BME280;4386;51.236;6.742;2023-04-15T04:35:33;96072.88;;;19.98;56.58
8699;BME280;4386;51.236;6.742;2023-04-15T04:36:38;96064.28;;;19.96;56.98
8699;BME280;4386;51.236;6.742;2023-04-15T04:37:41;96070.19;;;19.98;56.43
8699;BME280;4386;51.236;6.742;2023-04-15T04:38:44;96071.25;;;19.97;56.99
8699;BME280;4386;51.236;6.742;2023-04-15T04:39:47;96071.25;;;19.97;56.79
8699;BME280;4386;51.236;6.742;2023-04-15T04:41:01;96072.34;;;19.96;56.78
8699;BME280;4386;51.236;6.742;2023-04-15T04:42:04;96070.47;;;19.97;56.51
8699;BME280;4386;51.236;6.742;2023-04-15T04:43:07;96072.88;;;19.98;56.80
8699;BME280;4386;51.236;6.742;2023-04-15T04:44:11;96078.25;;;19.98;56.78
8699;BME280;4386;51.236;6.742;2023-04-15T04:45:14;96072.88;;;19.98;56.36
8699;BME280;4386;51.236;6.742;2023-04-15T04:46:17;96072.88;;;19.98;56.17
8699;BME280;4386;51.236;6.742;2023-04-15T04:47:21;96072.88;;;19.98;56.56
8699;BME280;4386;51.236;6.742;2023-04-15T04:48:24;96072.88;;;19.98;56.62
8699;BME280;4386;51.236;6.742;2023-04-15T04:49:28;96072.88;;;19.98;56.50
8699;BME280;4386;51.236;6.742;2023-04-15T04:50:31;96072.56;;;20.00;56.45
8699;BME280;4386;51.236;6.742;2023-04-15T04:51:35;96078.25;;;19.98;56.57
8699;BME280;4386;51.236;6.742;2023-04-15T04:52:37;96080.94;;;19.98;56.29
8699;BME280;4386;51.236;6.742;2023-04-15T04:53:41;96080.94;;;19.98;56.67
8699;BME280;4386;51.236;6.742;2023-04-15T04:54:44;96078.25;;;19.98;56.32
8699;BME280;4386;51.236;6.742;2023-04-15T04:55:48;96086.31;;;19.98;56.33
8699;BME280;4386;51.236;6.742;2023-04-15T04:56:52;96085.50;;;19.98;56.48
8699;BME280;4386;51.236;6.742;2023-04-15T04:57:55;96087.88;;;19.99;56.18
8699;BME280;4386;51.236;6.742;2023-04-15T04:58:58;96092.16;;;20.00;56.29
8699;BME280;4386;51.236;6.742;2023-04-15T05:00:01;96093.25;;;19.99;56.50
8699;BME280;4386;51.236;6.742;2023-04-15T05:01:08;96095.94;;;19.99;56.51
8699;BME280;4386;51.236;6.742;2023-04-15T05:02:32;96098.94;;;19.98;56.29
8699;BME280;4386;51.236;6.742;2023-04-15T05:03:56;96087.97;;;19.94;56.35
8699;BME280;4386;51.236;6.742;2023-04-15T05:05:19;96097.13;;;19.93;56.43
8699;BME280;4386;51.236;6.742;2023-04-15T05:06:43;96100.91;;;19.92;56.55
8699;BME280;4386;51.236;6.742;2023-04-15T05:08:06;96104.69;;;19.91;56.37
8699;BME280;4386;51.236;6.742;2023-04-15T05:09:27;96107.66;;;19.90;56.69
8699;BME280;4386;51.236;6.742;2023-04-15T05:10:51;96102.28;;;19.90;56.53
8699;BME280;4386;51.236;6.742;2023-04-15T05:11:54;96098.50;;;19.91;56.49
8699;BME280;4386;51.236;6.742;2023-04-15T05:13:03;96099.31;;;19.91;56.28
8699;BME280;4386;51.236;6.742;2023-04-15T05:14:06;96095.53;;;19.92;56.47
8699;BME280;4386;51.236;6.742;2023-04-15T05:15:27;96101.69;;;19.93;56.24
8699;BME280;4386;51.236;6.742;2023-04-15T05:16:31;96096.63;;;19.91;56.79
8699;BME280;4386;51.236;6.742;2023-04-15T05:17:35;96094.16;;;19.95;56.26
8699;BME280;4386;51.236;6.742;2023-04-15T05:18:38;96094.16;;;19.95;56.27
8699;BME280;4386;51.236;6.742;2023-04-15T05:19:42;96097.63;;;19.95;56.09
8699;BME280;4386;51.236;6.742;2023-04-15T05:20:45;96101.91;;;19.96;56.75
8699;BME280;4386;51.236;6.742;2023-04-15T05:21:48;96091.97;;;19.97;56.21
8699;BME280;4386;51.236;6.742;2023-04-15T05:22:51;96089.00;;;19.98;56.16
8699;BME280;4386;51.236;6.742;2023-04-15T05:23:53;96082.00;;;19.97;56.57
8699;BME280;4386;51.236;6.742;2023-04-15T05:24:57;96085.78;;;19.96;56.24
8699;BME280;4386;51.236;6.742;2023-04-15T05:25:59;96083.63;;;19.98;56.32
8699;BME280;4386;51.236;6.742;2023-04-15T05:27:05;96089.00;;;19.98;56.14
8699;BME280;4386;51.236;6.742;2023-04-15T05:28:09;96084.41;;;19.99;56.40
8699;BME280;4386;51.236;6.742;2023-04-15T05:29:16;96089.78;;;19.99;56.69
8699;BME280;4386;51.236;6.742;2023-04-15T05:30:25;96084.41;;;19.99;56.22
8699;BME280;4386;51.236;6.742;2023-04-15T05:31:29;96094.38;;;19.98;56.31
8699;BME280;4386;51.236;6.742;2023-04-15T05:32:32;96082.50;;;19.99;56.16
8699;BME280;4386;51.236;6.742;2023-04-15T05:33:37;96082.50;;;19.99;56.11
8699;BME280;4386;51.236;6.742;2023-04-15T05:34:40;96079.81;;;19.99;56.25
8699;BME280;4386;51.236;6.742;2023-04-15T05:35:43;96092.16;;;20.00;56.22
8699;BME280;4386;51.236;6.742;2023-04-15T05:36:46;96087.59;;;20.01;56.08
8699;BME280;4386;51.236;6.742;2023-04-15T05:37:50;96081.41;;;20.00;55.94
8699;BME280;4386;51.236;6.742;2023-04-15T05:38:58;96072.56;;;20.00;56.40
8699;BME280;4386;51.236;6.742;2023-04-15T05:40:02;96083.31;;;20.00;56.41
8699;BME280;4386;51.236;6.742;2023-04-15T05:41:15;96077.94;;;20.00;56.21
8699;BME280;4386;51.236;6.742;2023-04-15T05:42:28;96082.22;;;20.01;56.38
8699;BME280;4386;51.236;6.742;2023-04-15T05:43:32;96075.25;;;20.00;56.20
8699;BME280;4386;51.236;6.742;2023-04-15T05:44:35;96073.34;;;20.00;56.19
8699;BME280;4386;51.236;6.742;2023-04-15T05:45:38;96073.34;;;20.00;56.11
8699;BME280;4386;51.236;6.742;2023-04-15T05:46:41;96064.22;;;20.01;56.34
8699;BME280;4386;51.236;6.742;2023-04-15T05:47:53;96065.28;;;20.00;56.53
8699;BME280;4386;51.236;6.742;2023-04-15T05:48:58;96074.66;;;20.03;56.20
8699;BME280;4386;51.236;6.742;2023-04-15T05:50:25;96073.34;;;20.00;56.50
8699;BME280;4386;51.236;6.742;2023-04-15T05:51:28;96078.72;;;20.00;56.46
8699;BME280;4386;51.236;6.742;2023-04-15T05:52:34;96076.84;;;20.01;56.08
8699;BME280;4386;51.236;6.742;2023-04-15T05:53:47;96074.16;;;20.01;56.50
8699;BME280;4386;51.236;6.742;2023-04-15T05:54:50;96081.41;;;20.00;56.45
8699;BME280;4386;51.236;6.742;2023-04-15T05:55:54;96069.59;;;20.01;56.63
8699;BME280;4386;51.236;6.742;2023-04-15T05:56:57;96080.03;;;20.03;56.21
8699;BME280;4386;51.236;6.742;2023-04-15T05:58:01;96087.31;;;20.02;56.00
8699;BME280;4386;51.236;6.742;2023-04-15T05:59:04;96074.97;;;20.01;56.04
8699;BME280;4386;51.236;6.742;2023-04-15T06:00:11;96079.25;;;20.02;56.30
8699;BME280;4386;51.236;6.742;2023-04-15T06:01:19;96078.44;;;20.02;56.30
8699;BME280;4386;51.236;6.742;2023-04-15T06:02:23;96083.03;;;20.01;56.41
8699;BME280;4386;51.236;6.742;2023-04-15T06:03:47;96081.41;;;20.00;56.46
8699;BME280;4386;51.236;6.742;2023-04-15T06:05:10;96079.81;;;19.99;56.26
8699;BME280;4386;51.236;6.742;2023-04-15T06:06:34;96083.63;;;19.98;56.53
8699;BME280;4386;51.236;6.742;2023-04-15T06:07:57;96079.63;;;19.96;56.35
8699;BME280;4386;51.236;6.742;2023-04-15T06:09:20;96086.09;;;19.95;56.39
8699;BME280;4386;51.236;6.742;2023-04-15T06:10:43;96079.09;;;19.94;56.52
8699;BME280;4386;51.236;6.742;2023-04-15T06:12:07;96079.91;;;19.94;56.36
8699;BME280;4386;51.236;6.742;2023-04-15T06:13:19;96081.00;;;19.93;56.61
8699;BME280;4386;51.236;6.742;2023-04-15T06:14:32;96077.22;;;19.94;56.05
8699;BME280;4386;51.236;6.742;2023-04-15T06:15:41;96078.81;;;19.95;56.01
8699;BME280;4386;51.236;6.742;2023-04-15T06:16:44;96076.63;;;19.97;56.36
8699;BME280;4386;51.236;6.742;2023-04-15T06:17:48;96082.00;;;19.97;56.07
8699;BME280;4386;51.236;6.742;2023-04-15T06:18:51;96075.56;;;19.98;56.10
8699;BME280;4386;51.236;6.742;2023-04-15T06:19:54;96081.41;;;20.00;56.28
8699;BME280;4386;51.236;6.742;2023-04-15T06:20:58;96075.25;;;20.00;55.93
8699;BME280;4386;51.236;6.742;2023-04-15T06:22:03;96075.75;;;20.02;56.33
8699;BME280;4386;51.236;6.742;2023-04-15T06:23:11;96078.72;;;20.00;56.42
8699;BME280;4386;51.236;6.742;2023-04-15T06:24:14;96077.66;;;20.01;55.86
8699;BME280;4386;51.236;6.742;2023-04-15T06:25:27;96076.84;;;20.01;56.32
8699;BME280;4386;51.236;6.742;2023-04-15T06:26:38;96077.66;;;20.01;56.42
8699;BME280;4386;51.236;6.742;2023-04-15T06:27:40;96083.03;;;20.01;56.53
8699;BME280;4386;51.236;6.742;2023-04-15T06:28:44;96083.03;;;20.01;56.13
8699;BME280;4386;51.236;6.742;2023-04-15T06:29:47;96077.66;;;20.01;56.25
8699;BME280;4386;51.236;6.742;2023-04-15T06:30:51;96073.88;;;20.02;56.01
8699;BME280;4386;51.236;6.742;2023-04-15T06:31:55;96080.81;;;20.03;56.16
8699;BME280;4386;51.236;6.742;2023-04-15T06:33:08;96078.13;;;20.03;56.15
8699;BME280;4386;51.236;6.742;2023-04-15T06:34:11;96084.63;;;20.02;56.37
8699;BME280;4386;51.236;6.742;2023-04-15T06:35:14;96082.44;;;20.04;55.96